Destinations Václav Havel Airport Prague

Václav Havel Airport Prague (LKPR / PRG)

Flights to Václav Havel Airport Prague

Flight number From ETE Dispatch
SPY-2460 EGPH Edinburgh Airport 02:30

Flights from Václav Havel Airport Prague

Flight number To ETE Dispatch
SPY-2461 EGPH Edinburgh Airport 02:30
About

Václav Havel Airport Prague facts

Václav Havel Airport Prague is located in Prague at an elevation of 380.1 meters or 1247 feet.

Currently, Speedy Airlines serves 2 flights to and from Václav Havel Airport Prague.

Detailed airport info

Route map

Weather

Current weather

METAR

METAR

Metar data retrieved Sunday, 21 July 2024 at 19:55 UTC

LKPR 211930Z 12007KT 9999 FEW043CB 24/12 Q1010 TEMPO SHRA SCT040CB
Wind Temperature
7 kt 24c